sensor_id;sensor_type;location;lat;lon;timestamp;P1;durP1;ratioP1;P2;durP2;ratioP2
12861;SDS011;6499;66.348;14.134;2023-07-29T00:01:07;4.00;;;3.70;;
12861;SDS011;6499;66.348;14.134;2023-07-29T00:03:33;4.23;;;3.83;;
12861;SDS011;6499;66.348;14.134;2023-07-29T00:06:00;4.20;;;3.80;;
12861;SDS011;6499;66.348;14.134;2023-07-29T00:08:26;4.37;;;3.97;;
12861;SDS011;6499;66.348;14.134;2023-07-29T00:10:53;4.20;;;3.90;;
12861;SDS011;6499;66.348;14.134;2023-07-29T00:13:21;4.77;;;3.87;;
12861;SDS011;6499;66.348;14.134;2023-07-29T00:15:47;4.10;;;3.70;;
12861;SDS011;6499;66.348;14.134;2023-07-29T00:18:14;3.80;;;3.50;;
12861;SDS011;6499;66.348;14.134;2023-07-29T00:20:40;4.10;;;3.80;;
12861;SDS011;6499;66.348;14.134;2023-07-29T00:23:07;4.97;;;3.90;;
12861;SDS011;6499;66.348;14.134;2023-07-29T00:25:34;4.60;;;3.90;;
12861;SDS011;6499;66.348;14.134;2023-07-29T00:28:00;4.13;;;3.73;;
12861;SDS011;6499;66.348;14.134;2023-07-29T00:30:28;4.47;;;4.13;;
12861;SDS011;6499;66.348;14.134;2023-07-29T00:32:57;4.37;;;4.03;;
12861;SDS011;6499;66.348;14.134;2023-07-29T00:35:23;4.33;;;3.93;;
12861;SDS011;6499;66.348;14.134;2023-07-29T00:37:50;4.13;;;3.83;;
12861;SDS011;6499;66.348;14.134;2023-07-29T00:40:19;4.47;;;4.07;;
12861;SDS011;6499;66.348;14.134;2023-07-29T00:42:45;4.50;;;4.10;;
12861;SDS011;6499;66.348;14.134;2023-07-29T00:45:12;3.73;;;3.43;;
12861;SDS011;6499;66.348;14.134;2023-07-29T00:47:40;3.93;;;3.63;;
12861;SDS011;6499;66.348;14.134;2023-07-29T00:50:07;4.80;;;4.10;;
12861;SDS011;6499;66.348;14.134;2023-07-29T00:52:34;4.80;;;4.10;;
12861;SDS011;6499;66.348;14.134;2023-07-29T00:55:01;4.10;;;3.70;;
12861;SDS011;6499;66.348;14.134;2023-07-29T00:57:27;7.00;;;3.93;;
12861;SDS011;6499;66.348;14.134;2023-07-29T00:59:55;4.67;;;4.17;;
12861;SDS011;6499;66.348;14.134;2023-07-29T01:02:22;5.00;;;4.00;;
12861;SDS011;6499;66.348;14.134;2023-07-29T01:04:52;4.10;;;3.70;;
12861;SDS011;6499;66.348;14.134;2023-07-29T01:07:21;4.17;;;3.87;;
12861;SDS011;6499;66.348;14.134;2023-07-29T01:09:50;4.10;;;3.80;;
12861;SDS011;6499;66.348;14.134;2023-07-29T01:12:19;5.37;;;4.23;;
12861;SDS011;6499;66.348;14.134;2023-07-29T01:14:49;4.57;;;3.70;;
12861;SDS011;6499;66.348;14.134;2023-07-29T01:17:19;3.83;;;3.53;;
12861;SDS011;6499;66.348;14.134;2023-07-29T01:19:51;4.30;;;3.90;;
12861;SDS011;6499;66.348;14.134;2023-07-29T01:22:23;5.43;;;3.93;;
12861;SDS011;6499;66.348;14.134;2023-07-29T01:24:51;3.80;;;3.50;;
12861;SDS011;6499;66.348;14.134;2023-07-29T01:27:18;3.60;;;3.30;;
12861;SDS011;6499;66.348;14.134;2023-07-29T01:29:44;4.43;;;4.03;;
12861;SDS011;6499;66.348;14.134;2023-07-29T01:32:11;3.83;;;3.53;;
12861;SDS011;6499;66.348;14.134;2023-07-29T01:34:39;3.90;;;3.60;;
12861;SDS011;6499;66.348;14.134;2023-07-29T01:37:07;5.33;;;4.00;;
12861;SDS011;6499;66.348;14.134;2023-07-29T01:39:35;3.87;;;3.57;;
12861;SDS011;6499;66.348;14.134;2023-07-29T01:42:04;4.83;;;4.17;;
12861;SDS011;6499;66.348;14.134;2023-07-29T01:44:31;4.30;;;3.90;;
12861;SDS011;6499;66.348;14.134;2023-07-29T01:46:59;4.00;;;3.60;;
12861;SDS011;6499;66.348;14.134;2023-07-29T01:49:25;4.23;;;3.73;;
12861;SDS011;6499;66.348;14.134;2023-07-29T01:51:56;4.07;;;3.67;;
12861;SDS011;6499;66.348;14.134;2023-07-29T01:54:23;4.03;;;3.70;;
12861;SDS011;6499;66.348;14.134;2023-07-29T01:56:50;3.80;;;3.50;;
12861;SDS011;6499;66.348;14.134;2023-07-29T01:59:18;4.33;;;3.93;;
12861;SDS011;6499;66.348;14.134;2023-07-29T02:01:45;4.13;;;3.83;;
12861;SDS011;6499;66.348;14.134;2023-07-29T02:04:12;4.80;;;3.93;;
12861;SDS011;6499;66.348;14.134;2023-07-29T02:06:39;4.23;;;3.80;;
12861;SDS011;6499;66.348;14.134;2023-07-29T02:09:15;4.37;;;3.87;;
12861;SDS011;6499;66.348;14.134;2023-07-29T02:11:42;4.70;;;4.30;;
12861;SDS011;6499;66.348;14.134;2023-07-29T02:14:08;4.40;;;4.00;;
12861;SDS011;6499;66.348;14.134;2023-07-29T02:16:36;4.40;;;4.00;;
12861;SDS011;6499;66.348;14.134;2023-07-29T02:19:04;5.37;;;4.07;;
12861;SDS011;6499;66.348;14.134;2023-07-29T02:21:30;3.90;;;3.60;;
12861;SDS011;6499;66.348;14.134;2023-07-29T02:23:57;4.30;;;3.90;;
12861;SDS011;6499;66.348;14.134;2023-07-29T02:26:23;4.03;;;3.70;;
12861;SDS011;6499;66.348;14.134;2023-07-29T02:28:50;4.67;;;3.80;;
12861;SDS011;6499;66.348;14.134;2023-07-29T02:31:17;3.87;;;3.57;;
12861;SDS011;6499;66.348;14.134;2023-07-29T02:33:45;5.50;;;3.80;;
12861;SDS011;6499;66.348;14.134;2023-07-29T02:36:12;4.50;;;4.10;;
12861;SDS011;6499;66.348;14.134;2023-07-29T02:38:38;4.37;;;4.07;;
12861;SDS011;6499;66.348;14.134;2023-07-29T02:41:05;5.33;;;4.00;;
12861;SDS011;6499;66.348;14.134;2023-07-29T02:43:34;3.80;;;3.50;;
12861;SDS011;6499;66.348;14.134;2023-07-29T02:46:00;4.03;;;3.73;;
12861;SDS011;6499;66.348;14.134;2023-07-29T02:48:27;3.57;;;3.27;;
12861;SDS011;6499;66.348;14.134;2023-07-29T02:50:55;3.97;;;3.67;;
12861;SDS011;6499;66.348;14.134;2023-07-29T02:53:21;4.03;;;3.73;;
12861;SDS011;6499;66.348;14.134;2023-07-29T02:55:48;4.07;;;3.77;;
12861;SDS011;6499;66.348;14.134;2023-07-29T02:58:14;4.00;;;3.60;;
12861;SDS011;6499;66.348;14.134;2023-07-29T03:00:41;4.67;;;3.73;;
12861;SDS011;6499;66.348;14.134;2023-07-29T03:03:08;4.10;;;3.73;;
12861;SDS011;6499;66.348;14.134;2023-07-29T03:05:35;3.90;;;3.43;;
12861;SDS011;6499;66.348;14.134;2023-07-29T03:08:04;3.97;;;3.67;;
12861;SDS011;6499;66.348;14.134;2023-07-29T03:10:31;4.13;;;3.70;;
12861;SDS011;6499;66.348;14.134;2023-07-29T03:12:57;3.87;;;3.57;;
12861;SDS011;6499;66.348;14.134;2023-07-29T03:15:24;4.27;;;3.87;;
12861;SDS011;6499;66.348;14.134;2023-07-29T03:17:51;4.87;;;3.87;;
12861;SDS011;6499;66.348;14.134;2023-07-29T03:20:17;4.10;;;3.80;;
12861;SDS011;6499;66.348;14.134;2023-07-29T03:22:44;4.10;;;3.77;;
12861;SDS011;6499;66.348;14.134;2023-07-29T03:25:12;3.73;;;3.43;;
12861;SDS011;6499;66.348;14.134;2023-07-29T03:27:38;4.07;;;3.50;;
12861;SDS011;6499;66.348;14.134;2023-07-29T03:30:06;3.93;;;3.63;;
12861;SDS011;6499;66.348;14.134;2023-07-29T03:32:33;4.53;;;3.80;;
12861;SDS011;6499;66.348;14.134;2023-07-29T03:34:59;3.63;;;3.33;;
12861;SDS011;6499;66.348;14.134;2023-07-29T03:37:26;4.17;;;3.70;;
12861;SDS011;6499;66.348;14.134;2023-07-29T03:39:52;4.50;;;3.60;;
12861;SDS011;6499;66.348;14.134;2023-07-29T03:42:20;4.03;;;3.60;;
12861;SDS011;6499;66.348;14.134;2023-07-29T03:44:47;4.13;;;3.73;;
12861;SDS011;6499;66.348;14.134;2023-07-29T03:47:13;4.00;;;3.50;;
12861;SDS011;6499;66.348;14.134;2023-07-29T03:49:40;4.83;;;3.90;;
12861;SDS011;6499;66.348;14.134;2023-07-29T03:52:06;4.07;;;3.77;;
12861;SDS011;6499;66.348;14.134;2023-07-29T03:54:33;3.50;;;3.20;;
12861;SDS011;6499;66.348;14.134;2023-07-29T03:56:59;4.07;;;3.70;;
12861;SDS011;6499;66.348;14.134;2023-07-29T03:59:27;5.47;;;3.77;;
12861;SDS011;6499;66.348;14.134;2023-07-29T04:01:54;4.20;;;3.73;;
12861;SDS011;6499;66.348;14.134;2023-07-29T04:04:21;3.83;;;3.53;;
12861;SDS011;6499;66.348;14.134;2023-07-29T04:06:47;4.10;;;3.80;;
12861;SDS011;6499;66.348;14.134;2023-07-29T04:09:13;4.57;;;3.57;;
12861;SDS011;6499;66.348;14.134;2023-07-29T04:11:40;4.67;;;3.80;;
12861;SDS011;6499;66.348;14.134;2023-07-29T04:14:06;4.50;;;3.97;;
12861;SDS011;6499;66.348;14.134;2023-07-29T04:16:34;4.17;;;3.30;;
12861;SDS011;6499;66.348;14.134;2023-07-29T04:19:01;3.70;;;3.43;;
12861;SDS011;6499;66.348;14.134;2023-07-29T04:21:27;3.80;;;3.50;;
12861;SDS011;6499;66.348;14.134;2023-07-29T04:23:54;4.03;;;3.70;;
12861;SDS011;6499;66.348;14.134;2023-07-29T04:26:20;5.30;;;4.33;;
12861;SDS011;6499;66.348;14.134;2023-07-29T04:28:47;4.57;;;3.70;;
12861;SDS011;6499;66.348;14.134;2023-07-29T04:31:13;3.50;;;3.20;;
12861;SDS011;6499;66.348;14.134;2023-07-29T04:33:41;4.10;;;3.80;;
12861;SDS011;6499;66.348;14.134;2023-07-29T04:36:08;4.13;;;3.70;;
12861;SDS011;6499;66.348;14.134;2023-07-29T04:38:37;4.00;;;3.60;;
12861;SDS011;6499;66.348;14.134;2023-07-29T04:41:03;4.23;;;3.63;;
12861;SDS011;6499;66.348;14.134;2023-07-29T04:43:32;3.90;;;3.50;;
12861;SDS011;6499;66.348;14.134;2023-07-29T04:45:58;4.23;;;3.83;;
12861;SDS011;6499;66.348;14.134;2023-07-29T04:48:25;3.70;;;3.40;;
12861;SDS011;6499;66.348;14.134;2023-07-29T04:50:53;3.80;;;3.50;;
12861;SDS011;6499;66.348;14.134;2023-07-29T04:53:19;3.70;;;3.40;;
12861;SDS011;6499;66.348;14.134;2023-07-29T04:55:46;4.57;;;4.03;;
12861;SDS011;6499;66.348;14.134;2023-07-29T04:58:12;4.77;;;3.53;;
12861;SDS011;6499;66.348;14.134;2023-07-29T05:00:39;4.27;;;3.87;;
12861;SDS011;6499;66.348;14.134;2023-07-29T05:03:05;4.50;;;3.63;;
12861;SDS011;6499;66.348;14.134;2023-07-29T05:05:32;4.53;;;3.60;;
12861;SDS011;6499;66.348;14.134;2023-07-29T05:08:00;4.37;;;3.97;;
12861;SDS011;6499;66.348;14.134;2023-07-29T05:10:27;3.73;;;3.37;;
12861;SDS011;6499;66.348;14.134;2023-07-29T05:12:53;3.87;;;3.47;;
12861;SDS011;6499;66.348;14.134;2023-07-29T05:15:20;3.80;;;3.50;;
12861;SDS011;6499;66.348;14.134;2023-07-29T05:17:46;3.53;;;3.23;;
12861;SDS011;6499;66.348;14.134;2023-07-29T05:20:13;4.07;;;3.50;;
12861;SDS011;6499;66.348;14.134;2023-07-29T05:22:39;3.27;;;3.07;;
12861;SDS011;6499;66.348;14.134;2023-07-29T05:25:08;3.93;;;3.53;;
12861;SDS011;6499;66.348;14.134;2023-07-29T05:27:34;3.70;;;3.37;;
12861;SDS011;6499;66.348;14.134;2023-07-29T05:30:01;4.00;;;3.70;;
12861;SDS011;6499;66.348;14.134;2023-07-29T05:32:27;3.50;;;3.20;;
12861;SDS011;6499;66.348;14.134;2023-07-29T05:34:54;3.77;;;3.47;;
12861;SDS011;6499;66.348;14.134;2023-07-29T05:37:21;4.00;;;3.60;;
12861;SDS011;6499;66.348;14.134;2023-07-29T05:39:47;3.97;;;3.40;;
12861;SDS011;6499;66.348;14.134;2023-07-29T05:42:15;3.70;;;3.40;;
12861;SDS011;6499;66.348;14.134;2023-07-29T05:44:42;4.43;;;3.30;;
12861;SDS011;6499;66.348;14.134;2023-07-29T05:47:08;3.53;;;3.23;;
12861;SDS011;6499;66.348;14.134;2023-07-29T05:49:35;3.83;;;3.53;;
12861;SDS011;6499;66.348;14.134;2023-07-29T05:52:01;3.67;;;3.37;;
12861;SDS011;6499;66.348;14.134;2023-07-29T05:54:28;3.73;;;3.43;;
12861;SDS011;6499;66.348;14.134;2023-07-29T05:56:54;4.00;;;3.50;;
12861;SDS011;6499;66.348;14.134;2023-07-29T05:59:22;3.80;;;3.50;;
12861;SDS011;6499;66.348;14.134;2023-07-29T06:01:49;3.37;;;3.07;;
12861;SDS011;6499;66.348;14.134;2023-07-29T06:04:15;3.70;;;3.37;;
12861;SDS011;6499;66.348;14.134;2023-07-29T06:06:42;3.07;;;2.80;;
12861;SDS011;6499;66.348;14.134;2023-07-29T06:09:08;3.57;;;3.27;;
12861;SDS011;6499;66.348;14.134;2023-07-29T06:11:35;3.83;;;3.37;;
12861;SDS011;6499;66.348;14.134;2023-07-29T06:14:02;3.50;;;3.10;;
12861;SDS011;6499;66.348;14.134;2023-07-29T06:16:30;3.47;;;3.17;;
12861;SDS011;6499;66.348;14.134;2023-07-29T06:18:57;3.07;;;2.77;;
12861;SDS011;6499;66.348;14.134;2023-07-29T06:21:23;3.83;;;3.50;;
12861;SDS011;6499;66.348;14.134;2023-07-29T06:23:50;3.63;;;3.33;;
12861;SDS011;6499;66.348;14.134;2023-07-29T06:26:16;3.60;;;3.30;;
12861;SDS011;6499;66.348;14.134;2023-07-29T06:28:43;3.23;;;2.90;;
12861;SDS011;6499;66.348;14.134;2023-07-29T06:31:09;4.07;;;3.00;;
12861;SDS011;6499;66.348;14.134;2023-07-29T06:33:37;3.60;;;3.30;;
12861;SDS011;6499;66.348;14.134;2023-07-29T06:36:04;3.57;;;3.27;;
12861;SDS011;6499;66.348;14.134;2023-07-29T06:38:31;3.10;;;2.90;;
12861;SDS011;6499;66.348;14.134;2023-07-29T06:40:57;3.70;;;3.20;;
12861;SDS011;6499;66.348;14.134;2023-07-29T06:43:24;3.20;;;2.90;;
12861;SDS011;6499;66.348;14.134;2023-07-29T06:45:50;3.47;;;3.13;;
12861;SDS011;6499;66.348;14.134;2023-07-29T06:48:17;3.57;;;3.27;;
12861;SDS011;6499;66.348;14.134;2023-07-29T06:50:46;4.30;;;3.40;;
12861;SDS011;6499;66.348;14.134;2023-07-29T06:53:13;3.40;;;3.10;;
12861;SDS011;6499;66.348;14.134;2023-07-29T06:55:39;3.33;;;3.03;;
12861;SDS011;6499;66.348;14.134;2023-07-29T06:58:06;2.90;;;2.70;;
12861;SDS011;6499;66.348;14.134;2023-07-29T07:00:33;2.97;;;2.70;;
12861;SDS011;6499;66.348;14.134;2023-07-29T07:02:59;3.23;;;2.93;;
12861;SDS011;6499;66.348;14.134;2023-07-29T07:05:26;3.50;;;3.03;;
12861;SDS011;6499;66.348;14.134;2023-07-29T07:07:54;4.73;;;3.30;;
12861;SDS011;6499;66.348;14.134;2023-07-29T07:10:20;4.40;;;2.87;;
12861;SDS011;6499;66.348;14.134;2023-07-29T07:12:47;4.00;;;3.60;;
12861;SDS011;6499;66.348;14.134;2023-07-29T07:15:13;4.37;;;3.10;;
12861;SDS011;6499;66.348;14.134;2023-07-29T07:17:40;3.23;;;2.80;;
12861;SDS011;6499;66.348;14.134;2023-07-29T07:20:07;4.37;;;2.97;;
12861;SDS011;6499;66.348;14.134;2023-07-29T07:22:33;3.57;;;2.80;;
12861;SDS011;6499;66.348;14.134;2023-07-29T07:25:01;3.30;;;3.00;;
12861;SDS011;6499;66.348;14.134;2023-07-29T07:27:28;3.07;;;2.77;;
12861;SDS011;6499;66.348;14.134;2023-07-29T07:29:54;3.07;;;2.87;;
12861;SDS011;6499;66.348;14.134;2023-07-29T07:32:21;3.07;;;2.80;;
12861;SDS011;6499;66.348;14.134;2023-07-29T07:34:47;4.17;;;3.33;;
12861;SDS011;6499;66.348;14.134;2023-07-29T07:37:14;3.20;;;2.90;;
12861;SDS011;6499;66.348;14.134;2023-07-29T07:39:40;3.23;;;2.93;;
12861;SDS011;6499;66.348;14.134;2023-07-29T07:42:08;3.80;;;3.10;;
12861;SDS011;6499;66.348;14.134;2023-07-29T07:44:34;3.33;;;2.80;;
12861;SDS011;6499;66.348;14.134;2023-07-29T07:47:01;3.00;;;2.80;;
12861;SDS011;6499;66.348;14.134;2023-07-29T07:49:28;4.03;;;3.40;;
12861;SDS011;6499;66.348;14.134;2023-07-29T07:51:54;2.70;;;2.50;;
12861;SDS011;6499;66.348;14.134;2023-07-29T07:54:21;2.70;;;2.50;;
12861;SDS011;6499;66.348;14.134;2023-07-29T07:56:47;3.63;;;3.33;;
12861;SDS011;6499;66.348;14.134;2023-07-29T07:59:15;4.13;;;3.47;;
12861;SDS011;6499;66.348;14.134;2023-07-29T08:01:42;3.33;;;2.97;;
12861;SDS011;6499;66.348;14.134;2023-07-29T08:04:08;2.93;;;2.73;;
12861;SDS011;6499;66.348;14.134;2023-07-29T08:06:35;4.00;;;3.00;;
12861;SDS011;6499;66.348;14.134;2023-07-29T08:09:01;3.47;;;3.07;;
12861;SDS011;6499;66.348;14.134;2023-07-29T08:11:28;2.90;;;2.57;;
12861;SDS011;6499;66.348;14.134;2023-07-29T08:13:55;2.93;;;2.53;;
12861;SDS011;6499;66.348;14.134;2023-07-29T08:16:22;4.00;;;3.10;;
12861;SDS011;6499;66.348;14.134;2023-07-29T08:18:49;3.17;;;2.87;;
12861;SDS011;6499;66.348;14.134;2023-07-29T08:21:16;3.77;;;2.77;;
12861;SDS011;6499;66.348;14.134;2023-07-29T08:23:42;3.37;;;2.90;;
12861;SDS011;6499;66.348;14.134;2023-07-29T08:26:09;3.00;;;2.80;;
12861;SDS011;6499;66.348;14.134;2023-07-29T08:28:36;3.90;;;3.10;;
12861;SDS011;6499;66.348;14.134;2023-07-29T08:31:03;2.90;;;2.60;;
12861;SDS011;6499;66.348;14.134;2023-07-29T08:33:31;3.00;;;2.80;;
12861;SDS011;6499;66.348;14.134;2023-07-29T08:35:58;2.90;;;2.53;;
12861;SDS011;6499;66.348;14.134;2023-07-29T08:38:25;2.70;;;2.50;;
12861;SDS011;6499;66.348;14.134;2023-07-29T08:40:52;2.93;;;2.63;;
12861;SDS011;6499;66.348;14.134;2023-07-29T08:43:20;2.83;;;2.63;;
12861;SDS011;6499;66.348;14.134;2023-07-29T08:45:49;2.97;;;2.70;;
12861;SDS011;6499;66.348;14.134;2023-07-29T08:48:18;3.23;;;2.93;;
12861;SDS011;6499;66.348;14.134;2023-07-29T08:50:47;3.03;;;2.70;;
12861;SDS011;6499;66.348;14.134;2023-07-29T08:53:15;2.83;;;2.50;;
12861;SDS011;6499;66.348;14.134;2023-07-29T08:55:42;2.70;;;2.50;;
12861;SDS011;6499;66.348;14.134;2023-07-29T08:58:09;2.73;;;2.53;;
12861;SDS011;6499;66.348;14.134;2023-07-29T09:00:35;3.07;;;2.87;;
12861;SDS011;6499;66.348;14.134;2023-07-29T09:03:02;3.50;;;2.80;;
12861;SDS011;6499;66.348;14.134;2023-07-29T09:05:32;2.93;;;2.73;;
12861;SDS011;6499;66.348;14.134;2023-07-29T09:08:00;2.63;;;2.43;;
12861;SDS011;6499;66.348;14.134;2023-07-29T09:10:28;3.20;;;2.60;;
12861;SDS011;6499;66.348;14.134;2023-07-29T09:12:55;2.60;;;2.40;;
12861;SDS011;6499;66.348;14.134;2023-07-29T09:15:27;3.00;;;2.80;;
12861;SDS011;6499;66.348;14.134;2023-07-29T09:17:55;2.80;;;2.60;;
12861;SDS011;6499;66.348;14.134;2023-07-29T09:20:23;2.87;;;2.67;;
12861;SDS011;6499;66.348;14.134;2023-07-29T09:22:50;2.53;;;2.33;;
12861;SDS011;6499;66.348;14.134;2023-07-29T09:25:23;2.87;;;2.60;;
12861;SDS011;6499;66.348;14.134;2023-07-29T09:27:50;2.63;;;2.43;;
12861;SDS011;6499;66.348;14.134;2023-07-29T09:30:16;2.83;;;2.63;;
12861;SDS011;6499;66.348;14.134;2023-07-29T09:32:43;2.53;;;2.33;;
12861;SDS011;6499;66.348;14.134;2023-07-29T09:35:09;2.50;;;2.30;;
12861;SDS011;6499;66.348;14.134;2023-07-29T09:37:36;2.57;;;2.27;;
12861;SDS011;6499;66.348;14.134;2023-07-29T09:40:04;2.93;;;2.73;;
12861;SDS011;6499;66.348;14.134;2023-07-29T09:42:32;3.07;;;2.77;;
12861;SDS011;6499;66.348;14.134;2023-07-29T09:44:59;2.97;;;2.77;;
12861;SDS011;6499;66.348;14.134;2023-07-29T09:47:25;3.73;;;2.60;;
12861;SDS011;6499;66.348;14.134;2023-07-29T09:49:52;4.50;;;2.50;;
12861;SDS011;6499;66.348;14.134;2023-07-29T09:52:20;2.97;;;2.70;;
12861;SDS011;6499;66.348;14.134;2023-07-29T09:54:48;2.53;;;2.20;;
12861;SDS011;6499;66.348;14.134;2023-07-29T09:57:14;2.60;;;2.40;;
12861;SDS011;6499;66.348;14.134;2023-07-29T09:59:44;2.67;;;2.47;;
12861;SDS011;6499;66.348;14.134;2023-07-29T10:02:19;4.43;;;2.87;;
12861;SDS011;6499;66.348;14.134;2023-07-29T10:04:47;3.10;;;2.50;;
12861;SDS011;6499;66.348;14.134;2023-07-29T10:07:14;2.97;;;2.70;;
12861;SDS011;6499;66.348;14.134;2023-07-29T10:09:41;2.40;;;2.20;;
12861;SDS011;6499;66.348;14.134;2023-07-29T10:12:07;3.00;;;2.60;;
12861;SDS011;6499;66.348;14.134;2023-07-29T10:14:36;2.40;;;2.20;;
12861;SDS011;6499;66.348;14.134;2023-07-29T10:17:05;2.63;;;2.43;;
12861;SDS011;6499;66.348;14.134;2023-07-29T10:19:31;3.15;;;2.33;;
12861;SDS011;6499;66.348;14.134;2023-07-29T10:21:59;3.50;;;2.20;;
12861;SDS011;6499;66.348;14.134;2023-07-29T10:24:28;2.80;;;2.40;;
12861;SDS011;6499;66.348;14.134;2023-07-29T10:26:57;2.57;;;2.37;;
12861;SDS011;6499;66.348;14.134;2023-07-29T10:29:24;2.50;;;2.30;;
12861;SDS011;6499;66.348;14.134;2023-07-29T10:31:51;2.57;;;2.37;;
12861;SDS011;6499;66.348;14.134;2023-07-29T10:34:19;2.60;;;2.40;;
12861;SDS011;6499;66.348;14.134;2023-07-29T10:36:47;2.50;;;2.30;;
12861;SDS011;6499;66.348;14.134;2023-07-29T10:39:14;2.67;;;2.47;;
12861;SDS011;6499;66.348;14.134;2023-07-29T10:41:56;3.03;;;2.57;;
12861;SDS011;6499;66.348;14.134;2023-07-29T10:44:45;2.33;;;2.23;;
12861;SDS011;6499;66.348;14.134;2023-07-29T10:47:14;2.40;;;2.20;;
12861;SDS011;6499;66.348;14.134;2023-07-29T10:49:43;2.70;;;2.47;;
12861;SDS011;6499;66.348;14.134;2023-07-29T10:52:12;3.33;;;2.47;;
12861;SDS011;6499;66.348;14.134;2023-07-29T10:54:44;2.80;;;2.60;;
12861;SDS011;6499;66.348;14.134;2023-07-29T10:57:13;2.57;;;2.37;;
12861;SDS011;6499;66.348;14.134;2023-07-29T10:59:53;2.83;;;2.50;;
12861;SDS011;6499;66.348;14.134;2023-07-29T11:02:19;2.80;;;2.60;;
12861;SDS011;6499;66.348;14.134;2023-07-29T11:04:48;3.10;;;2.80;;
12861;SDS011;6499;66.348;14.134;2023-07-29T11:07:22;2.07;;;1.97;;
12861;SDS011;6499;66.348;14.134;2023-07-29T11:09:58;2.23;;;2.13;;
12861;SDS011;6499;66.348;14.134;2023-07-29T11:12:34;2.40;;;2.20;;
12861;SDS011;6499;66.348;14.134;2023-07-29T11:15:02;2.53;;;2.30;;
12861;SDS011;6499;66.348;14.134;2023-07-29T11:17:30;2.33;;;2.13;;
12861;SDS011;6499;66.348;14.134;2023-07-29T11:20:00;2.07;;;1.87;;
12861;SDS011;6499;66.348;14.134;2023-07-29T11:22:28;2.00;;;1.90;;
12861;SDS011;6499;66.348;14.134;2023-07-29T11:24:54;2.40;;;2.20;;
12861;SDS011;6499;66.348;14.134;2023-07-29T11:27:21;2.67;;;2.13;;
12861;SDS011;6499;66.348;14.134;2023-07-29T11:29:48;2.33;;;2.10;;
12861;SDS011;6499;66.348;14.134;2023-07-29T11:32:15;1.83;;;1.73;;
12861;SDS011;6499;66.348;14.134;2023-07-29T11:34:42;2.27;;;2.03;;
12861;SDS011;6499;66.348;14.134;2023-07-29T11:37:10;2.53;;;2.33;;
12861;SDS011;6499;66.348;14.134;2023-07-29T11:39:39;2.13;;;1.90;;
12861;SDS011;6499;66.348;14.134;2023-07-29T11:42:06;1.80;;;1.70;;
12861;SDS011;6499;66.348;14.134;2023-07-29T11:44:32;2.60;;;2.10;;
12861;SDS011;6499;66.348;14.134;2023-07-29T11:47:02;2.80;;;2.23;;
12861;SDS011;6499;66.348;14.134;2023-07-29T11:49:29;2.67;;;2.47;;
12861;SDS011;6499;66.348;14.134;2023-07-29T11:51:55;2.00;;;1.80;;
12861;SDS011;6499;66.348;14.134;2023-07-29T11:54:24;2.60;;;2.40;;
12861;SDS011;6499;66.348;14.134;2023-07-29T11:56:51;2.53;;;2.30;;
12861;SDS011;6499;66.348;14.134;2023-07-29T11:59:18;2.53;;;2.33;;
12861;SDS011;6499;66.348;14.134;2023-07-29T12:01:45;2.37;;;2.27;;
12861;SDS011;6499;66.348;14.134;2023-07-29T12:04:15;2.33;;;2.13;;
12861;SDS011;6499;66.348;14.134;2023-07-29T12:06:52;2.97;;;2.00;;
12861;SDS011;6499;66.348;14.134;2023-07-29T12:09:18;2.70;;;2.13;;
12861;SDS011;6499;66.348;14.134;2023-07-29T12:11:46;2.10;;;1.90;;
12861;SDS011;6499;66.348;14.134;2023-07-29T12:14:13;2.20;;;2.10;;
12861;SDS011;6499;66.348;14.134;2023-07-29T12:16:40;3.17;;;2.17;;
12861;SDS011;6499;66.348;14.134;2023-07-29T12:19:07;2.43;;;2.23;;
12861;SDS011;6499;66.348;14.134;2023-07-29T12:21:33;3.77;;;2.60;;
12861;SDS011;6499;66.348;14.134;2023-07-29T12:24:00;2.07;;;1.97;;
12861;SDS011;6499;66.348;14.134;2023-07-29T12:26:27;2.50;;;2.30;;
12861;SDS011;6499;66.348;14.134;2023-07-29T12:28:55;2.30;;;2.10;;
12861;SDS011;6499;66.348;14.134;2023-07-29T12:31:28;2.40;;;2.20;;
12861;SDS011;6499;66.348;14.134;2023-07-29T12:33:56;2.67;;;2.27;;
12861;SDS011;6499;66.348;14.134;2023-07-29T12:36:27;2.40;;;2.20;;
12861;SDS011;6499;66.348;14.134;2023-07-29T12:38:53;2.63;;;2.17;;
12861;SDS011;6499;66.348;14.134;2023-07-29T12:41:20;2.90;;;2.07;;
12861;SDS011;6499;66.348;14.134;2023-07-29T12:43:46;2.50;;;2.30;;
12861;SDS011;6499;66.348;14.134;2023-07-29T12:46:14;3.83;;;2.40;;
12861;SDS011;6499;66.348;14.134;2023-07-29T12:48:41;2.30;;;2.20;;
12861;SDS011;6499;66.348;14.134;2023-07-29T12:51:07;2.37;;;2.20;;
12861;SDS011;6499;66.348;14.134;2023-07-29T12:53:34;2.77;;;2.40;;
12861;SDS011;6499;66.348;14.134;2023-07-29T12:56:00;2.40;;;2.20;;
12861;SDS011;6499;66.348;14.134;2023-07-29T12:58:27;2.90;;;2.40;;
12861;SDS011;6499;66.348;14.134;2023-07-29T13:00:53;2.33;;;2.13;;
12861;SDS011;6499;66.348;14.134;2023-07-29T13:03:21;3.50;;;2.20;;
12861;SDS011;6499;66.348;14.134;2023-07-29T13:05:48;2.77;;;2.57;;
12861;SDS011;6499;66.348;14.134;2023-07-29T13:08:15;2.40;;;2.20;;
12861;SDS011;6499;66.348;14.134;2023-07-29T13:10:41;2.50;;;2.30;;
12861;SDS011;6499;66.348;14.134;2023-07-29T13:13:08;2.23;;;2.10;;
12861;SDS011;6499;66.348;14.134;2023-07-29T13:15:34;3.33;;;2.47;;
12861;SDS011;6499;66.348;14.134;2023-07-29T13:18:01;3.17;;;2.50;;
12861;SDS011;6499;66.348;14.134;2023-07-29T13:20:29;2.50;;;2.30;;
12861;SDS011;6499;66.348;14.134;2023-07-29T13:22:55;2.27;;;2.07;;
12861;SDS011;6499;66.348;14.134;2023-07-29T13:25:22;3.77;;;2.33;;
12861;SDS011;6499;66.348;14.134;2023-07-29T13:27:48;2.70;;;2.50;;
12861;SDS011;6499;66.348;14.134;2023-07-29T13:30:15;2.60;;;2.40;;
12861;SDS011;6499;66.348;14.134;2023-07-29T13:32:42;2.50;;;2.30;;
12861;SDS011;6499;66.348;14.134;2023-07-29T13:35:08;2.53;;;2.30;;
12861;SDS011;6499;66.348;14.134;2023-07-29T13:37:36;2.87;;;2.47;;
12861;SDS011;6499;66.348;14.134;2023-07-29T13:40:03;2.97;;;2.70;;
12861;SDS011;6499;66.348;14.134;2023-07-29T13:42:29;3.40;;;2.57;;
12861;SDS011;6499;66.348;14.134;2023-07-29T13:44:56;2.57;;;2.30;;
12861;SDS011;6499;66.348;14.134;2023-07-29T13:47:23;3.57;;;2.77;;
12861;SDS011;6499;66.348;14.134;2023-07-29T13:49:49;2.47;;;2.27;;
12861;SDS011;6499;66.348;14.134;2023-07-29T13:52:16;2.47;;;2.20;;
12861;SDS011;6499;66.348;14.134;2023-07-29T13:54:44;3.77;;;2.37;;
12861;SDS011;6499;66.348;14.134;2023-07-29T13:57:10;2.57;;;2.30;;
12861;SDS011;6499;66.348;14.134;2023-07-29T13:59:37;3.00;;;2.30;;
12861;SDS011;6499;66.348;14.134;2023-07-29T14:02:04;2.60;;;2.40;;
12861;SDS011;6499;66.348;14.134;2023-07-29T14:04:31;3.27;;;2.50;;
12861;SDS011;6499;66.348;14.134;2023-07-29T14:06:58;3.17;;;2.60;;
12861;SDS011;6499;66.348;14.134;2023-07-29T14:09:25;3.27;;;2.47;;
12861;SDS011;6499;66.348;14.134;2023-07-29T14:11:53;2.90;;;2.60;;
12861;SDS011;6499;66.348;14.134;2023-07-29T14:14:20;2.73;;;2.30;;
12861;SDS011;6499;66.348;14.134;2023-07-29T14:16:46;3.50;;;2.60;;
12861;SDS011;6499;66.348;14.134;2023-07-29T14:19:14;2.57;;;2.33;;
12861;SDS011;6499;66.348;14.134;2023-07-29T14:21:40;2.97;;;2.67;;
12861;SDS011;6499;66.348;14.134;2023-07-29T14:24:07;3.00;;;2.23;;
12861;SDS011;6499;66.348;14.134;2023-07-29T14:26:43;2.53;;;2.20;;
12861;SDS011;6499;66.348;14.134;2023-07-29T14:29:11;3.57;;;1.97;;
12861;SDS011;6499;66.348;14.134;2023-07-29T14:31:37;2.20;;;2.00;;
12861;SDS011;6499;66.348;14.134;2023-07-29T14:34:04;2.33;;;2.13;;
12861;SDS011;6499;66.348;14.134;2023-07-29T14:36:30;2.93;;;2.60;;
12861;SDS011;6499;66.348;14.134;2023-07-29T14:38:57;3.70;;;2.23;;
12861;SDS011;6499;66.348;14.134;2023-07-29T14:41:23;3.93;;;2.27;;
12861;SDS011;6499;66.348;14.134;2023-07-29T14:43:50;3.30;;;2.13;;
12861;SDS011;6499;66.348;14.134;2023-07-29T14:46:18;2.23;;;2.03;;
12861;SDS011;6499;66.348;14.134;2023-07-29T14:48:45;3.17;;;2.53;;